sensor_id;sensor_type;location;lat;lon;timestamp;P1;durP1;ratioP1;P2;durP2;ratioP2
9422;SDS011;4750;49.506;10.400;2022-08-18T00:00:24;8.70;;;3.00;;
9422;SDS011;4750;49.506;10.400;2022-08-18T00:03:08;4.33;;;2.83;;
9422;SDS011;4750;49.506;10.400;2022-08-18T00:05:54;7.43;;;3.50;;
9422;SDS011;4750;49.506;10.400;2022-08-18T00:08:37;3.00;;;2.50;;
9422;SDS011;4750;49.506;10.400;2022-08-18T00:11:21;8.73;;;2.60;;
9422;SDS011;4750;49.506;10.400;2022-08-18T00:14:06;5.33;;;2.70;;
9422;SDS011;4750;49.506;10.400;2022-08-18T00:16:53;10.87;;;2.97;;
9422;SDS011;4750;49.506;10.400;2022-08-18T00:19:37;9.17;;;3.40;;
9422;SDS011;4750;49.506;10.400;2022-08-18T00:22:21;6.03;;;3.53;;
9422;SDS011;4750;49.506;10.400;2022-08-18T00:25:07;8.70;;;3.17;;
9422;SDS011;4750;49.506;10.400;2022-08-18T00:27:53;4.97;;;3.03;;
9422;SDS011;4750;49.506;10.400;2022-08-18T00:30:37;7.03;;;3.07;;
9422;SDS011;4750;49.506;10.400;2022-08-18T00:33:21;4.60;;;3.07;;
9422;SDS011;4750;49.506;10.400;2022-08-18T00:36:05;6.20;;;3.20;;
9422;SDS011;4750;49.506;10.400;2022-08-18T00:38:49;8.70;;;3.30;;
9422;SDS011;4750;49.506;10.400;2022-08-18T00:41:33;7.73;;;3.10;;
9422;SDS011;4750;49.506;10.400;2022-08-18T00:44:17;4.73;;;3.10;;
9422;SDS011;4750;49.506;10.400;2022-08-18T00:47:01;6.40;;;2.97;;
9422;SDS011;4750;49.506;10.400;2022-08-18T00:49:45;7.50;;;3.97;;
9422;SDS011;4750;49.506;10.400;2022-08-18T00:52:34;11.23;;;3.70;;
9422;SDS011;4750;49.506;10.400;2022-08-18T00:55:19;4.37;;;3.37;;
9422;SDS011;4750;49.506;10.400;2022-08-18T00:58:09;11.57;;;4.00;;
9422;SDS011;4750;49.506;10.400;2022-08-18T01:00:58;5.60;;;3.70;;
9422;SDS011;4750;49.506;10.400;2022-08-18T01:03:45;4.13;;;3.73;;
9422;SDS011;4750;49.506;10.400;2022-08-18T01:06:40;6.27;;;3.90;;
9422;SDS011;4750;49.506;10.400;2022-08-18T01:09:34;10.60;;;4.07;;
9422;SDS011;4750;49.506;10.400;2022-08-18T01:12:18;8.60;;;4.53;;
9422;SDS011;4750;49.506;10.400;2022-08-18T01:15:02;6.70;;;4.53;;
9422;SDS011;4750;49.506;10.400;2022-08-18T01:17:47;7.87;;;4.60;;
9422;SDS011;4750;49.506;10.400;2022-08-18T01:24:24;5.83;;;4.67;;
9422;SDS011;4750;49.506;10.400;2022-08-18T01:27:32;5.37;;;4.87;;
9422;SDS011;4750;49.506;10.400;2022-08-18T01:30:17;6.77;;;5.03;;
9422;SDS011;4750;49.506;10.400;2022-08-18T01:33:07;7.27;;;5.27;;
9422;SDS011;4750;49.506;10.400;2022-08-18T01:35:53;6.13;;;5.20;;
9422;SDS011;4750;49.506;10.400;2022-08-18T01:38:37;9.07;;;5.40;;
9422;SDS011;4750;49.506;10.400;2022-08-18T01:41:23;6.00;;;5.40;;
9422;SDS011;4750;49.506;10.400;2022-08-18T01:44:08;6.63;;;5.97;;
9422;SDS011;4750;49.506;10.400;2022-08-18T01:46:54;9.90;;;5.83;;
9422;SDS011;4750;49.506;10.400;2022-08-18T01:49:39;6.63;;;5.73;;
9422;SDS011;4750;49.506;10.400;2022-08-18T01:52:26;7.27;;;5.83;;
9422;SDS011;4750;49.506;10.400;2022-08-18T01:55:11;7.63;;;6.00;;
9422;SDS011;4750;49.506;10.400;2022-08-18T01:57:55;7.17;;;6.07;;
9422;SDS011;4750;49.506;10.400;2022-08-18T02:00:39;7.83;;;6.13;;
9422;SDS011;4750;49.506;10.400;2022-08-18T02:03:25;7.17;;;6.47;;
9422;SDS011;4750;49.506;10.400;2022-08-18T02:06:14;8.83;;;6.20;;
9422;SDS011;4750;49.506;10.400;2022-08-18T02:09:01;8.80;;;5.83;;
9422;SDS011;4750;49.506;10.400;2022-08-18T02:11:45;6.63;;;6.00;;
9422;SDS011;4750;49.506;10.400;2022-08-18T02:14:29;7.70;;;6.70;;
9422;SDS011;4750;49.506;10.400;2022-08-18T02:17:13;6.93;;;6.20;;
9422;SDS011;4750;49.506;10.400;2022-08-18T02:19:57;7.30;;;6.60;;
9422;SDS011;4750;49.506;10.400;2022-08-18T02:22:41;7.73;;;6.57;;
9422;SDS011;4750;49.506;10.400;2022-08-18T02:25:26;7.27;;;6.53;;
9422;SDS011;4750;49.506;10.400;2022-08-18T02:28:10;7.73;;;6.93;;
9422;SDS011;4750;49.506;10.400;2022-08-18T02:30:54;7.77;;;6.83;;
9422;SDS011;4750;49.506;10.400;2022-08-18T02:33:38;8.60;;;6.93;;
9422;SDS011;4750;49.506;10.400;2022-08-18T02:36:23;7.90;;;6.90;;
9422;SDS011;4750;49.506;10.400;2022-08-18T02:39:07;8.93;;;6.93;;
9422;SDS011;4750;49.506;10.400;2022-08-18T02:41:51;8.57;;;6.93;;
9422;SDS011;4750;49.506;10.400;2022-08-18T02:44:35;7.37;;;6.67;;
9422;SDS011;4750;49.506;10.400;2022-08-18T02:47:20;7.90;;;7.10;;
9422;SDS011;4750;49.506;10.400;2022-08-18T02:50:05;10.17;;;7.23;;
9422;SDS011;4750;49.506;10.400;2022-08-18T02:52:49;7.83;;;7.13;;
9422;SDS011;4750;49.506;10.400;2022-08-18T02:55:33;10.33;;;7.93;;
9422;SDS011;4750;49.506;10.400;2022-08-18T02:58:17;10.17;;;7.60;;
9422;SDS011;4750;49.506;10.400;2022-08-18T03:01:03;8.37;;;7.27;;
9422;SDS011;4750;49.506;10.400;2022-08-18T03:03:47;10.10;;;7.90;;
9422;SDS011;4750;49.506;10.400;2022-08-18T03:06:34;10.00;;;7.53;;
9422;SDS011;4750;49.506;10.400;2022-08-18T03:09:19;8.67;;;6.97;;
9422;SDS011;4750;49.506;10.400;2022-08-18T03:12:04;7.83;;;7.00;;
9422;SDS011;4750;49.506;10.400;2022-08-18T03:14:50;8.20;;;7.50;;
9422;SDS011;4750;49.506;10.400;2022-08-18T03:17:34;9.37;;;7.03;;
9422;SDS011;4750;49.506;10.400;2022-08-18T03:20:20;7.33;;;6.73;;
9422;SDS011;4750;49.506;10.400;2022-08-18T03:23:04;7.70;;;7.00;;
9422;SDS011;4750;49.506;10.400;2022-08-18T03:25:48;7.30;;;6.50;;
9422;SDS011;4750;49.506;10.400;2022-08-18T03:28:32;8.37;;;6.20;;
9422;SDS011;4750;49.506;10.400;2022-08-18T03:31:17;8.63;;;6.00;;
9422;SDS011;4750;49.506;10.400;2022-08-18T03:34:04;6.70;;;6.00;;
9422;SDS011;4750;49.506;10.400;2022-08-18T03:36:51;6.53;;;5.93;;
9422;SDS011;4750;49.506;10.400;2022-08-18T03:39:35;9.03;;;5.97;;
9422;SDS011;4750;49.506;10.400;2022-08-18T03:42:19;6.50;;;5.93;;
9422;SDS011;4750;49.506;10.400;2022-08-18T03:45:03;7.63;;;6.47;;
9422;SDS011;4750;49.506;10.400;2022-08-18T03:47:49;7.47;;;6.00;;
9422;SDS011;4750;49.506;10.400;2022-08-18T03:50:35;7.37;;;6.60;;
9422;SDS011;4750;49.506;10.400;2022-08-18T03:53:18;7.40;;;6.33;;
9422;SDS011;4750;49.506;10.400;2022-08-18T03:56:06;6.80;;;6.13;;
9422;SDS011;4750;49.506;10.400;2022-08-18T03:59:09;8.57;;;6.50;;
9422;SDS011;4750;49.506;10.400;2022-08-18T04:02:01;8.20;;;7.40;;
9422;SDS011;4750;49.506;10.400;2022-08-18T04:04:47;9.40;;;7.00;;
9422;SDS011;4750;49.506;10.400;2022-08-18T04:07:32;9.83;;;7.27;;
9422;SDS011;4750;49.506;10.400;2022-08-18T04:10:17;8.03;;;7.20;;
9422;SDS011;4750;49.506;10.400;2022-08-18T04:13:02;8.30;;;7.47;;
9422;SDS011;4750;49.506;10.400;2022-08-18T04:15:48;9.17;;;8.00;;
9422;SDS011;4750;49.506;10.400;2022-08-18T04:18:32;8.87;;;8.07;;
9422;SDS011;4750;49.506;10.400;2022-08-18T04:21:16;8.60;;;7.70;;
9422;SDS011;4750;49.506;10.400;2022-08-18T04:24:01;8.33;;;7.63;;
9422;SDS011;4750;49.506;10.400;2022-08-18T04:26:47;11.50;;;8.13;;
9422;SDS011;4750;49.506;10.400;2022-08-18T04:29:32;8.33;;;7.57;;
9422;SDS011;4750;49.506;10.400;2022-08-18T04:32:16;11.03;;;7.73;;
9422;SDS011;4750;49.506;10.400;2022-08-18T04:35:02;9.03;;;8.13;;
9422;SDS011;4750;49.506;10.400;2022-08-18T04:37:46;8.77;;;8.00;;
9422;SDS011;4750;49.506;10.400;2022-08-18T04:40:30;8.73;;;7.83;;
9422;SDS011;4750;49.506;10.400;2022-08-18T04:43:16;8.57;;;7.73;;
9422;SDS011;4750;49.506;10.400;2022-08-18T04:46:00;10.03;;;7.90;;
9422;SDS011;4750;49.506;10.400;2022-08-18T04:48:45;8.80;;;7.90;;
9422;SDS011;4750;49.506;10.400;2022-08-18T04:51:29;10.80;;;7.97;;
9422;SDS011;4750;49.506;10.400;2022-08-18T04:54:13;8.87;;;7.87;;
9422;SDS011;4750;49.506;10.400;2022-08-18T04:56:58;9.13;;;8.33;;
9422;SDS011;4750;49.506;10.400;2022-08-18T04:59:42;11.13;;;8.20;;
9422;SDS011;4750;49.506;10.400;2022-08-18T05:02:28;9.20;;;8.20;;
9422;SDS011;4750;49.506;10.400;2022-08-18T05:05:12;9.80;;;8.30;;
9422;SDS011;4750;49.506;10.400;2022-08-18T05:07:56;9.93;;;7.73;;
9422;SDS011;4750;49.506;10.400;2022-08-18T05:10:40;10.77;;;7.73;;
9422;SDS011;4750;49.506;10.400;2022-08-18T05:13:24;8.37;;;7.57;;
9422;SDS011;4750;49.506;10.400;2022-08-18T05:16:09;9.53;;;7.97;;
9422;SDS011;4750;49.506;10.400;2022-08-18T05:18:53;8.97;;;8.07;;
9422;SDS011;4750;49.506;10.400;2022-08-18T05:21:37;9.40;;;7.87;;
9422;SDS011;4750;49.506;10.400;2022-08-18T05:24:25;8.93;;;8.07;;
9422;SDS011;4750;49.506;10.400;2022-08-18T05:27:10;9.00;;;8.10;;
9422;SDS011;4750;49.506;10.400;2022-08-18T05:29:55;9.33;;;7.53;;
9422;SDS011;4750;49.506;10.400;2022-08-18T05:32:43;10.87;;;7.87;;
9422;SDS011;4750;49.506;10.400;2022-08-18T05:35:30;8.60;;;7.70;;
9422;SDS011;4750;49.506;10.400;2022-08-18T05:41:34;9.70;;;7.33;;
9422;SDS011;4750;49.506;10.400;2022-08-18T05:44:23;8.33;;;7.13;;
9422;SDS011;4750;49.506;10.400;2022-08-18T05:47:24;9.87;;;6.83;;
9422;SDS011;4750;49.506;10.400;2022-08-18T05:50:11;8.03;;;7.23;;
9422;SDS011;4750;49.506;10.400;2022-08-18T05:53:00;7.37;;;6.53;;
9422;SDS011;4750;49.506;10.400;2022-08-18T05:55:55;7.67;;;6.97;;
9422;SDS011;4750;49.506;10.400;2022-08-18T05:59:04;8.40;;;7.10;;
9422;SDS011;4750;49.506;10.400;2022-08-18T06:02:00;7.03;;;6.43;;
9422;SDS011;4750;49.506;10.400;2022-08-18T06:04:55;7.87;;;6.90;;
9422;SDS011;4750;49.506;10.400;2022-08-18T06:07:44;6.60;;;6.00;;
9422;SDS011;4750;49.506;10.400;2022-08-18T06:10:35;6.30;;;5.77;;
9422;SDS011;4750;49.506;10.400;2022-08-18T06:13:20;6.00;;;5.40;;
9422;SDS011;4750;49.506;10.400;2022-08-18T06:16:08;5.80;;;5.07;;
9422;SDS011;4750;49.506;10.400;2022-08-18T06:19:24;6.57;;;4.60;;
9422;SDS011;4750;49.506;10.400;2022-08-18T06:22:25;6.50;;;4.37;;
9422;SDS011;4750;49.506;10.400;2022-08-18T06:26:05;6.40;;;4.40;;
9422;SDS011;4750;49.506;10.400;2022-08-18T06:28:35;4.43;;;4.03;;
9422;SDS011;4750;49.506;10.400;2022-08-18T06:31:31;5.97;;;4.10;;
9422;SDS011;4750;49.506;10.400;2022-08-18T06:34:40;4.20;;;3.80;;
9422;SDS011;4750;49.506;10.400;2022-08-18T06:38:06;6.83;;;3.80;;
9422;SDS011;4750;49.506;10.400;2022-08-18T06:44:08;5.53;;;4.00;;
9422;SDS011;4750;49.506;10.400;2022-08-18T06:47:04;8.97;;;3.90;;
9422;SDS011;4750;49.506;10.400;2022-08-18T06:53:09;4.83;;;3.97;;
9422;SDS011;4750;49.506;10.400;2022-08-18T06:55:53;6.37;;;4.07;;
9422;SDS011;4750;49.506;10.400;2022-08-18T06:58:37;6.13;;;4.13;;
9422;SDS011;4750;49.506;10.400;2022-08-18T07:01:21;5.63;;;4.37;;
9422;SDS011;4750;49.506;10.400;2022-08-18T07:04:07;4.90;;;4.50;;
9422;SDS011;4750;49.506;10.400;2022-08-18T07:06:51;5.50;;;4.80;;
9422;SDS011;4750;49.506;10.400;2022-08-18T07:09:35;8.70;;;4.80;;
9422;SDS011;4750;49.506;10.400;2022-08-18T07:12:20;5.33;;;4.93;;
9422;SDS011;4750;49.506;10.400;2022-08-18T07:15:11;5.10;;;4.60;;
9422;SDS011;4750;49.506;10.400;2022-08-18T07:18:01;6.00;;;4.70;;
9422;SDS011;4750;49.506;10.400;2022-08-18T07:20:55;5.33;;;4.47;;
9422;SDS011;4750;49.506;10.400;2022-08-18T07:23:41;5.40;;;4.57;;
9422;SDS011;4750;49.506;10.400;2022-08-18T07:26:24;5.80;;;5.20;;
9422;SDS011;4750;49.506;10.400;2022-08-18T07:29:13;6.53;;;5.10;;
9422;SDS011;4750;49.506;10.400;2022-08-18T07:32:00;6.70;;;5.27;;
9422;SDS011;4750;49.506;10.400;2022-08-18T07:34:49;5.73;;;4.80;;
9422;SDS011;4750;49.506;10.400;2022-08-18T07:37:39;5.57;;;5.07;;
9422;SDS011;4750;49.506;10.400;2022-08-18T07:40:35;5.77;;;5.13;;
9422;SDS011;4750;49.506;10.400;2022-08-18T07:43:31;6.40;;;5.80;;
9422;SDS011;4750;49.506;10.400;2022-08-18T07:46:29;8.73;;;4.97;;
9422;SDS011;4750;49.506;10.400;2022-08-18T07:49:21;6.90;;;5.40;;
9422;SDS011;4750;49.506;10.400;2022-08-18T07:52:11;6.97;;;5.80;;
9422;SDS011;4750;49.506;10.400;2022-08-18T07:55:17;6.03;;;5.50;;
9422;SDS011;4750;49.506;10.400;2022-08-18T07:58:18;6.73;;;6.03;;
9422;SDS011;4750;49.506;10.400;2022-08-18T08:04:10;5.93;;;5.40;;
9422;SDS011;4750;49.506;10.400;2022-08-18T08:07:05;7.77;;;5.83;;
9422;SDS011;4750;49.506;10.400;2022-08-18T08:16:21;6.00;;;5.30;;
9422;SDS011;4750;49.506;10.400;2022-08-18T08:31:41;5.30;;;4.80;;
9422;SDS011;4750;49.506;10.400;2022-08-18T08:34:49;6.50;;;4.93;;
9422;SDS011;4750;49.506;10.400;2022-08-18T08:40:23;12.50;;;4.97;;
9422;SDS011;4750;49.506;10.400;2022-08-18T08:43:23;5.47;;;4.40;;
9422;SDS011;4750;49.506;10.400;2022-08-18T08:46:21;7.80;;;4.70;;
9422;SDS011;4750;49.506;10.400;2022-08-18T08:52:15;6.30;;;4.00;;
9422;SDS011;4750;49.506;10.400;2022-08-18T08:55:10;5.17;;;4.67;;
9422;SDS011;4750;49.506;10.400;2022-08-18T08:58:09;5.43;;;4.53;;
9422;SDS011;4750;49.506;10.400;2022-08-18T09:01:19;4.33;;;3.70;;
9422;SDS011;4750;49.506;10.400;2022-08-18T09:11:05;4.37;;;3.77;;
9422;SDS011;4750;49.506;10.400;2022-08-18T09:23:24;4.90;;;3.53;;
9422;SDS011;4750;49.506;10.400;2022-08-18T09:26:21;3.57;;;3.27;;
9422;SDS011;4750;49.506;10.400;2022-08-18T09:29:20;3.67;;;3.20;;
9422;SDS011;4750;49.506;10.400;2022-08-18T09:38:25;3.97;;;3.63;;
9422;SDS011;4750;49.506;10.400;2022-08-18T09:41:34;4.70;;;3.23;;
9422;SDS011;4750;49.506;10.400;2022-08-18T09:53:14;3.70;;;3.40;;
9422;SDS011;4750;49.506;10.400;2022-08-18T09:57:04;5.33;;;3.20;;
9422;SDS011;4750;49.506;10.400;2022-08-18T10:10:52;3.73;;;3.33;;
9422;SDS011;4750;49.506;10.400;2022-08-18T10:13:49;3.67;;;3.37;;
9422;SDS011;4750;49.506;10.400;2022-08-18T10:16:57;5.13;;;3.20;;
9422;SDS011;4750;49.506;10.400;2022-08-18T10:22:45;4.67;;;3.30;;
9422;SDS011;4750;49.506;10.400;2022-08-18T10:25:39;5.07;;;3.20;;
9422;SDS011;4750;49.506;10.400;2022-08-18T10:34:42;3.50;;;3.20;;
9422;SDS011;4750;49.506;10.400;2022-08-18T10:37:30;6.03;;;3.20;;
9422;SDS011;4750;49.506;10.400;2022-08-18T10:40:17;7.67;;;3.40;;
9422;SDS011;4750;49.506;10.400;2022-08-18T10:43:09;5.20;;;2.80;;
9422;SDS011;4750;49.506;10.400;2022-08-18T10:46:00;3.33;;;3.03;;
9422;SDS011;4750;49.506;10.400;2022-08-18T10:48:55;4.60;;;3.50;;
9422;SDS011;4750;49.506;10.400;2022-08-18T10:55:05;5.07;;;2.97;;
9422;SDS011;4750;49.506;10.400;2022-08-18T10:58:14;5.07;;;3.57;;
9422;SDS011;4750;49.506;10.400;2022-08-18T11:07:05;3.60;;;3.23;;
9422;SDS011;4750;49.506;10.400;2022-08-18T11:09:54;5.70;;;3.63;;
9422;SDS011;4750;49.506;10.400;2022-08-18T11:19:01;6.70;;;2.90;;
9422;SDS011;4750;49.506;10.400;2022-08-18T11:21:57;3.20;;;2.90;;
9422;SDS011;4750;49.506;10.400;2022-08-18T11:24:43;4.70;;;3.20;;
9422;SDS011;4750;49.506;10.400;2022-08-18T11:27:28;5.13;;;2.80;;
9422;SDS011;4750;49.506;10.400;2022-08-18T11:30:13;4.07;;;2.80;;
9422;SDS011;4750;49.506;10.400;2022-08-18T11:32:58;8.70;;;2.93;;
9422;SDS011;4750;49.506;10.400;2022-08-18T11:36:02;3.07;;;2.87;;
9422;SDS011;4750;49.506;10.400;2022-08-18T11:38:55;5.40;;;3.00;;
9422;SDS011;4750;49.506;10.400;2022-08-18T11:41:43;6.03;;;2.80;;
9422;SDS011;4750;49.506;10.400;2022-08-18T11:44:29;3.23;;;2.80;;
9422;SDS011;4750;49.506;10.400;2022-08-18T11:47:16;4.23;;;3.00;;
9422;SDS011;4750;49.506;10.400;2022-08-18T11:50:08;3.33;;;3.00;;
9422;SDS011;4750;49.506;10.400;2022-08-18T11:52:54;9.13;;;2.40;;
9422;SDS011;4750;49.506;10.400;2022-08-18T11:55:39;4.37;;;3.23;;
9422;SDS011;4750;49.506;10.400;2022-08-18T12:04:15;4.57;;;2.93;;
9422;SDS011;4750;49.506;10.400;2022-08-18T12:07:02;5.50;;;3.00;;
9422;SDS011;4750;49.506;10.400;2022-08-18T12:10:10;5.17;;;3.10;;
9422;SDS011;4750;49.506;10.400;2022-08-18T12:13:04;5.40;;;2.90;;
9422;SDS011;4750;49.506;10.400;2022-08-18T12:15:58;6.87;;;2.87;;
9422;SDS011;4750;49.506;10.400;2022-08-18T12:18:53;3.63;;;2.90;;
9422;SDS011;4750;49.506;10.400;2022-08-18T12:21:41;4.07;;;3.40;;
9422;SDS011;4750;49.506;10.400;2022-08-18T12:24:33;3.80;;;2.97;;
9422;SDS011;4750;49.506;10.400;2022-08-18T12:27:22;3.30;;;3.00;;
9422;SDS011;4750;49.506;10.400;2022-08-18T12:30:08;3.33;;;3.03;;
9422;SDS011;4750;49.506;10.400;2022-08-18T12:32:54;4.03;;;3.17;;
9422;SDS011;4750;49.506;10.400;2022-08-18T12:35:38;3.37;;;3.03;;
9422;SDS011;4750;49.506;10.400;2022-08-18T12:38:22;5.20;;;3.10;;
9422;SDS011;4750;49.506;10.400;2022-08-18T12:41:07;3.63;;;2.83;;
9422;SDS011;4750;49.506;10.400;2022-08-18T12:43:54;3.17;;;2.97;;
9422;SDS011;4750;49.506;10.400;2022-08-18T12:46:38;7.50;;;2.80;;
9422;SDS011;4750;49.506;10.400;2022-08-18T12:49:23;7.87;;;3.13;;
9422;SDS011;4750;49.506;10.400;2022-08-18T12:52:08;3.63;;;3.10;;
9422;SDS011;4750;49.506;10.400;2022-08-18T12:54:52;2.87;;;2.67;;
9422;SDS011;4750;49.506;10.400;2022-08-18T12:57:36;4.43;;;3.17;;
9422;SDS011;4750;49.506;10.400;2022-08-18T13:00:20;7.43;;;3.50;;
9422;SDS011;4750;49.506;10.400;2022-08-18T13:03:04;7.00;;;3.20;;
9422;SDS011;4750;49.506;10.400;2022-08-18T13:05:48;3.60;;;2.70;;
9422;SDS011;4750;49.506;10.400;2022-08-18T13:08:32;6.43;;;3.23;;
9422;SDS011;4750;49.506;10.400;2022-08-18T13:11:17;4.20;;;3.27;;
9422;SDS011;4750;49.506;10.400;2022-08-18T13:14:02;4.53;;;3.33;;
9422;SDS011;4750;49.506;10.400;2022-08-18T13:16:46;5.90;;;2.87;;
9422;SDS011;4750;49.506;10.400;2022-08-18T13:19:30;3.43;;;3.10;;
9422;SDS011;4750;49.506;10.400;2022-08-18T13:22:15;5.87;;;3.40;;
9422;SDS011;4750;49.506;10.400;2022-08-18T13:24:59;3.93;;;3.10;;
9422;SDS011;4750;49.506;10.400;2022-08-18T13:27:47;3.27;;;2.97;;
9422;SDS011;4750;49.506;10.400;2022-08-18T13:30:35;3.10;;;2.80;;
9422;SDS011;4750;49.506;10.400;2022-08-18T13:33:19;5.27;;;3.40;;
9422;SDS011;4750;49.506;10.400;2022-08-18T13:36:03;3.30;;;2.90;;
9422;SDS011;4750;49.506;10.400;2022-08-18T13:38:47;5.30;;;3.30;;
9422;SDS011;4750;49.506;10.400;2022-08-18T13:41:32;3.43;;;2.90;;
9422;SDS011;4750;49.506;10.400;2022-08-18T13:44:17;3.43;;;3.07;;
9422;SDS011;4750;49.506;10.400;2022-08-18T13:47:02;4.77;;;3.20;;
9422;SDS011;4750;49.506;10.400;2022-08-18T13:49:46;4.60;;;2.97;;
9422;SDS011;4750;49.506;10.400;2022-08-18T13:52:30;3.43;;;3.13;;
9422;SDS011;4750;49.506;10.400;2022-08-18T13:55:16;4.00;;;3.37;;
9422;SDS011;4750;49.506;10.400;2022-08-18T13:58:00;3.87;;;2.97;;
9422;SDS011;4750;49.506;10.400;2022-08-18T14:00:45;3.07;;;2.87;;
9422;SDS011;4750;49.506;10.400;2022-08-18T14:03:29;4.57;;;3.43;;
9422;SDS011;4750;49.506;10.400;2022-08-18T14:06:15;5.03;;;3.20;;
9422;SDS011;4750;49.506;10.400;2022-08-18T14:08:59;3.83;;;2.90;;
9422;SDS011;4750;49.506;10.400;2022-08-18T14:11:43;4.00;;;3.37;;
9422;SDS011;4750;49.506;10.400;2022-08-18T14:14:29;3.53;;;3.20;;
9422;SDS011;4750;49.506;10.400;2022-08-18T14:17:13;5.47;;;3.27;;
9422;SDS011;4750;49.506;10.400;2022-08-18T14:19:58;4.10;;;3.43;;
9422;SDS011;4750;49.506;10.400;2022-08-18T14:23:01;6.67;;;3.03;;
9422;SDS011;4750;49.506;10.400;2022-08-18T14:26:05;4.60;;;3.00;;
9422;SDS011;4750;49.506;10.400;2022-08-18T14:29:08;6.40;;;3.00;;
9422;SDS011;4750;49.506;10.400;2022-08-18T14:31:52;3.67;;;3.30;;
9422;SDS011;4750;49.506;10.400;2022-08-18T14:34:36;3.90;;;2.90;;
9422;SDS011;4750;49.506;10.400;2022-08-18T14:37:20;3.10;;;2.83;;
9422;SDS011;4750;49.506;10.400;2022-08-18T14:40:05;3.40;;;3.10;;
9422;SDS011;4750;49.506;10.400;2022-08-18T14:42:50;6.10;;;3.50;;
9422;SDS011;4750;49.506;10.400;2022-08-18T14:45:34;6.50;;;3.40;;
9422;SDS011;4750;49.506;10.400;2022-08-18T14:48:19;4.73;;;3.47;;
9422;SDS011;4750;49.506;10.400;2022-08-18T14:51:05;3.60;;;3.27;;
9422;SDS011;4750;49.506;10.400;2022-08-18T14:53:51;6.33;;;3.33;;
9422;SDS011;4750;49.506;10.400;2022-08-18T14:56:35;3.70;;;3.30;;
9422;SDS011;4750;49.506;10.400;2022-08-18T14:59:20;4.33;;;3.40;;
9422;SDS011;4750;49.506;10.400;2022-08-18T15:02:06;3.43;;;3.13;;
9422;SDS011;4750;49.506;10.400;2022-08-18T15:04:52;4.57;;;3.60;;
9422;SDS011;4750;49.506;10.400;2022-08-18T15:07:36;4.87;;;3.50;;
9422;SDS011;4750;49.506;10.400;2022-08-18T15:10:21;4.97;;;3.33;;
9422;SDS011;4750;49.506;10.400;2022-08-18T15:13:05;3.50;;;3.20;;
9422;SDS011;4750;49.506;10.400;2022-08-18T15:18:36;5.00;;;3.63;;
9422;SDS011;4750;49.506;10.400;2022-08-18T15:21:20;5.17;;;3.37;;
9422;SDS011;4750;49.506;10.400;2022-08-18T15:24:23;5.17;;;3.50;;
9422;SDS011;4750;49.506;10.400;2022-08-18T15:27:30;3.50;;;3.20;;
9422;SDS011;4750;49.506;10.400;2022-08-18T15:30:15;3.73;;;3.40;;
9422;SDS011;4750;49.506;10.400;2022-08-18T15:32:59;9.60;;;3.57;;
9422;SDS011;4750;49.506;10.400;2022-08-18T15:35:44;3.73;;;3.40;;
9422;SDS011;4750;49.506;10.400;2022-08-18T15:38:33;4.10;;;3.70;;
9422;SDS011;4750;49.506;10.400;2022-08-18T15:41:36;3.73;;;3.43;;
9422;SDS011;4750;49.506;10.400;2022-08-18T15:44:22;7.83;;;3.77;;
9422;SDS011;4750;49.506;10.400;2022-08-18T15:47:07;5.30;;;3.30;;
9422;SDS011;4750;49.506;10.400;2022-08-18T15:49:50;7.00;;;3.60;;
9422;SDS011;4750;49.506;10.400;2022-08-18T15:52:35;4.13;;;3.47;;
9422;SDS011;4750;49.506;10.400;2022-08-18T15:55:20;3.57;;;3.27;;
9422;SDS011;4750;49.506;10.400;2022-08-18T15:58:05;6.67;;;3.70;;
9422;SDS011;4750;49.506;10.400;2022-08-18T16:00:51;3.57;;;3.27;;
9422;SDS011;4750;49.506;10.400;2022-08-18T16:03:36;4.57;;;3.80;;
9422;SDS011;4750;49.506;10.400;2022-08-18T16:06:22;4.83;;;3.17;;
9422;SDS011;4750;49.506;10.400;2022-08-18T16:09:08;3.90;;;3.40;;
9422;SDS011;4750;49.506;10.400;2022-08-18T16:11:52;3.83;;;3.30;;
9422;SDS011;4750;49.506;10.400;2022-08-18T16:14:37;4.77;;;3.43;;
9422;SDS011;4750;49.506;10.400;2022-08-18T16:17:23;6.87;;;3.77;;
9422;SDS011;4750;49.506;10.400;2022-08-18T16:20:07;5.23;;;4.07;;
9422;SDS011;4750;49.506;10.400;2022-08-18T16:22:52;4.60;;;4.20;;
9422;SDS011;4750;49.506;10.400;2022-08-18T16:25:37;4.57;;;3.77;;
9422;SDS011;4750;49.506;10.400;2022-08-18T16:28:22;4.73;;;4.30;;
9422;SDS011;4750;49.506;10.400;2022-08-18T16:31:08;5.70;;;4.13;;
9422;SDS011;4750;49.506;10.400;2022-08-18T16:33:52;5.83;;;4.23;;
9422;SDS011;4750;49.506;10.400;2022-08-18T16:36:37;5.63;;;3.90;;
9422;SDS011;4750;49.506;10.400;2022-08-18T16:39:22;5.03;;;4.20;;
9422;SDS011;4750;49.506;10.400;2022-08-18T16:42:06;7.90;;;4.00;;
9422;SDS011;4750;49.506;10.400;2022-08-18T16:44:50;6.60;;;4.57;;
9422;SDS011;4750;49.506;10.400;2022-08-18T16:47:35;8.73;;;4.03;;
9422;SDS011;4750;49.506;10.400;2022-08-18T16:50:23;4.60;;;4.20;;
9422;SDS011;4750;49.506;10.400;2022-08-18T16:53:07;5.57;;;4.60;;
9422;SDS011;4750;49.506;10.400;2022-08-18T16:55:52;4.80;;;4.30;;
9422;SDS011;4750;49.506;10.400;2022-08-18T16:58:36;5.30;;;4.30;;
9422;SDS011;4750;49.506;10.400;2022-08-18T17:01:39;5.07;;;4.33;;
9422;SDS011;4750;49.506;10.400;2022-08-18T17:04:42;4.90;;;4.40;;
9422;SDS011;4750;49.506;10.400;2022-08-18T17:07:30;5.40;;;4.87;;
9422;SDS011;4750;49.506;10.400;2022-08-18T17:10:17;4.90;;;4.43;;
9422;SDS011;4750;49.506;10.400;2022-08-18T17:13:01;4.87;;;4.27;;
9422;SDS011;4750;49.506;10.400;2022-08-18T17:15:46;5.17;;;4.30;;
9422;SDS011;4750;49.506;10.400;2022-08-18T17:18:32;6.40;;;5.13;;
9422;SDS011;4750;49.506;10.400;2022-08-18T17:21:18;6.43;;;4.70;;
9422;SDS011;4750;49.506;10.400;2022-08-18T17:24:06;5.03;;;4.60;;
9422;SDS011;4750;49.506;10.400;2022-08-18T17:27:03;6.63;;;4.93;;
9422;SDS011;4750;49.506;10.400;2022-08-18T17:32:52;5.43;;;4.93;;
9422;SDS011;4750;49.506;10.400;2022-08-18T17:35:41;6.13;;;4.90;;
9422;SDS011;4750;49.506;10.400;2022-08-18T17:38:31;5.27;;;4.77;;
9422;SDS011;4750;49.506;10.400;2022-08-18T17:41:32;5.97;;;4.60;;
9422;SDS011;4750;49.506;10.400;2022-08-18T17:44:41;5.20;;;4.67;;
9422;SDS011;4750;49.506;10.400;2022-08-18T17:47:32;7.27;;;4.93;;
9422;SDS011;4750;49.506;10.400;2022-08-18T17:50:25;7.03;;;5.10;;
9422;SDS011;4750;49.506;10.400;2022-08-18T17:53:35;6.60;;;5.30;;
9422;SDS011;4750;49.506;10.400;2022-08-18T17:56:22;5.30;;;4.70;;
9422;SDS011;4750;49.506;10.400;2022-08-18T17:59:12;5.47;;;4.43;;
9422;SDS011;4750;49.506;10.400;2022-08-18T18:02:16;5.00;;;4.60;;
9422;SDS011;4750;49.506;10.400;2022-08-18T18:05:03;5.63;;;4.87;;
9422;SDS011;4750;49.506;10.400;2022-08-18T18:13:28;5.93;;;5.33;;
9422;SDS011;4750;49.506;10.400;2022-08-18T18:16:33;5.53;;;5.00;;
9422;SDS011;4750;49.506;10.400;2022-08-18T18:19:17;5.83;;;5.30;;
9422;SDS011;4750;49.506;10.400;2022-08-18T18:22:31;5.10;;;4.70;;
9422;SDS011;4750;49.506;10.400;2022-08-18T18:25:28;5.77;;;5.00;;
9422;SDS011;4750;49.506;10.400;2022-08-18T18:28:23;6.53;;;5.10;;
9422;SDS011;4750;49.506;10.400;2022-08-18T18:31:23;5.87;;;5.00;;
9422;SDS011;4750;49.506;10.400;2022-08-18T18:34:19;6.70;;;5.20;;
9422;SDS011;4750;49.506;10.400;2022-08-18T18:37:23;7.70;;;5.03;;
9422;SDS011;4750;49.506;10.400;2022-08-18T18:40:22;6.40;;;5.47;;
9422;SDS011;4750;49.506;10.400;2022-08-18T18:43:21;6.60;;;6.00;;
9422;SDS011;4750;49.506;10.400;2022-08-18T18:46:33;7.07;;;5.37;;
9422;SDS011;4750;49.506;10.400;2022-08-18T18:49:25;6.30;;;5.80;;
9422;SDS011;4750;49.506;10.400;2022-08-18T18:55:23;6.70;;;6.10;;
9422;SDS011;4750;49.506;10.400;2022-08-18T19:01:25;8.30;;;6.13;;
9422;SDS011;4750;49.506;10.400;2022-08-18T19:04:19;6.80;;;6.00;;
9422;SDS011;4750;49.506;10.400;2022-08-18T19:07:19;6.80;;;6.20;;
9422;SDS011;4750;49.506;10.400;2022-08-18T19:10:09;7.60;;;6.70;;
9422;SDS011;4750;49.506;10.400;2022-08-18T19:13:02;7.57;;;6.50;;
9422;SDS011;4750;49.506;10.400;2022-08-18T19:15:53;6.93;;;6.30;;
9422;SDS011;4750;49.506;10.400;2022-08-18T19:18:42;6.37;;;5.77;;
9422;SDS011;4750;49.506;10.400;2022-08-18T19:21:29;7.17;;;6.50;;
9422;SDS011;4750;49.506;10.400;2022-08-18T19:24:19;6.80;;;6.23;;